Terminal Aerodrome Forecast
Issued by NWS Detroit/Pontiac, MI

Home | Current Version | Previous Version | Text Only | Print | Product List | Glossary On
Versions: 1 2 3 4 5 6 7 8 9 10 11 12 13 14 15 16 17
847
FTUS43 KDTX 031139
TAFFNT
TAF
KFNT 031139Z 0312/0412 27004KT P6SM SKC
     FM031700 24007KT P6SM SCT060
     FM040200 22005KT P6SM SCT060 BKN150
     FM040600 21006KT 6SM -SHRA SCT035 BKN050
     FM040900 23005KT 3SM -SHRA SCT012 BKN025=

USA.gov is the U.S. government's official web portal to all federal, state and local government web resources and services.